sensor_id;sensor_type;location;lat;lon;timestamp;P1;durP1;ratioP1;P2;durP2;ratioP2
29452;SDS011;16424;50.956;5.320;2024-01-30T00:01:16;142.55;;;134.73;;
29452;SDS011;16424;50.956;5.320;2024-01-30T00:03:42;142.77;;;135.07;;
29452;SDS011;16424;50.956;5.320;2024-01-30T00:06:08;146.02;;;138.00;;
29452;SDS011;16424;50.956;5.320;2024-01-30T00:08:34;140.38;;;132.77;;
29452;SDS011;16424;50.956;5.320;2024-01-30T00:11:00;141.38;;;133.80;;
29452;SDS011;16424;50.956;5.320;2024-01-30T00:13:26;146.95;;;138.77;;
29452;SDS011;16424;50.956;5.320;2024-01-30T00:15:52;151.25;;;142.98;;
29452;SDS011;16424;50.956;5.320;2024-01-30T00:18:18;148.88;;;140.55;;
29452;SDS011;16424;50.956;5.320;2024-01-30T00:20:44;147.68;;;139.35;;
29452;SDS011;16424;50.956;5.320;2024-01-30T00:23:10;148.23;;;140.30;;
29452;SDS011;16424;50.956;5.320;2024-01-30T00:25:36;153.05;;;144.73;;
29452;SDS011;16424;50.956;5.320;2024-01-30T00:28:01;154.13;;;145.82;;
29452;SDS011;16424;50.956;5.320;2024-01-30T00:30:27;148.30;;;140.20;;
29452;SDS011;16424;50.956;5.320;2024-01-30T00:32:53;150.07;;;142.00;;
29452;SDS011;16424;50.956;5.320;2024-01-30T00:35:19;153.82;;;145.32;;
29452;SDS011;16424;50.956;5.320;2024-01-30T00:37:45;147.50;;;139.45;;
29452;SDS011;16424;50.956;5.320;2024-01-30T00:40:10;154.15;;;145.70;;
29452;SDS011;16424;50.956;5.320;2024-01-30T00:42:41;149.85;;;141.73;;
29452;SDS011;16424;50.956;5.320;2024-01-30T00:45:11;154.25;;;145.70;;
29452;SDS011;16424;50.956;5.320;2024-01-30T00:47:38;146.88;;;138.65;;
29452;SDS011;16424;50.956;5.320;2024-01-30T00:50:04;151.45;;;143.15;;
29452;SDS011;16424;50.956;5.320;2024-01-30T00:52:30;148.55;;;140.52;;
29452;SDS011;16424;50.956;5.320;2024-01-30T00:54:58;151.57;;;143.55;;
29452;SDS011;16424;50.956;5.320;2024-01-30T00:57:24;150.27;;;142.50;;
29452;SDS011;16424;50.956;5.320;2024-01-30T00:59:49;157.30;;;148.93;;
29452;SDS011;16424;50.956;5.320;2024-01-30T01:02:15;151.75;;;143.65;;
29452;SDS011;16424;50.956;5.320;2024-01-30T01:04:43;153.18;;;145.05;;
29452;SDS011;16424;50.956;5.320;2024-01-30T01:07:09;153.13;;;145.02;;
29452;SDS011;16424;50.956;5.320;2024-01-30T01:09:35;154.35;;;146.10;;
29452;SDS011;16424;50.956;5.320;2024-01-30T01:12:01;153.90;;;145.75;;
29452;SDS011;16424;50.956;5.320;2024-01-30T01:14:28;152.02;;;144.02;;
29452;SDS011;16424;50.956;5.320;2024-01-30T01:16:53;152.57;;;144.52;;
29452;SDS011;16424;50.956;5.320;2024-01-30T01:19:19;150.05;;;141.85;;
29452;SDS011;16424;50.956;5.320;2024-01-30T01:21:45;155.23;;;146.75;;
29452;SDS011;16424;50.956;5.320;2024-01-30T01:24:11;151.57;;;143.55;;
29452;SDS011;16424;50.956;5.320;2024-01-30T01:26:36;152.40;;;143.57;;
29452;SDS011;16424;50.956;5.320;2024-01-30T01:29:02;155.73;;;147.40;;
29452;SDS011;16424;50.956;5.320;2024-01-30T01:31:34;152.52;;;144.13;;
29452;SDS011;16424;50.956;5.320;2024-01-30T01:34:05;152.73;;;144.70;;
29452;SDS011;16424;50.956;5.320;2024-01-30T01:36:31;152.05;;;143.90;;
29452;SDS011;16424;50.956;5.320;2024-01-30T01:38:56;153.75;;;145.45;;
29452;SDS011;16424;50.956;5.320;2024-01-30T01:41:22;154.57;;;146.23;;
29452;SDS011;16424;50.956;5.320;2024-01-30T01:43:48;153.60;;;145.40;;
29452;SDS011;16424;50.956;5.320;2024-01-30T01:46:13;150.25;;;142.30;;
29452;SDS011;16424;50.956;5.320;2024-01-30T01:48:40;154.35;;;146.07;;
29452;SDS011;16424;50.956;5.320;2024-01-30T01:51:07;155.43;;;146.73;;
29452;SDS011;16424;50.956;5.320;2024-01-30T01:53:34;147.80;;;140.15;;
29452;SDS011;16424;50.956;5.320;2024-01-30T01:56:00;155.15;;;147.00;;
29452;SDS011;16424;50.956;5.320;2024-01-30T01:58:26;150.68;;;142.75;;
29452;SDS011;16424;50.956;5.320;2024-01-30T02:00:56;157.65;;;149.40;;
29452;SDS011;16424;50.956;5.320;2024-01-30T02:03:23;155.10;;;146.65;;
29452;SDS011;16424;50.956;5.320;2024-01-30T02:05:49;154.85;;;146.55;;
29452;SDS011;16424;50.956;5.320;2024-01-30T02:08:16;148.27;;;140.38;;
29452;SDS011;16424;50.956;5.320;2024-01-30T02:10:41;151.02;;;143.07;;
29452;SDS011;16424;50.956;5.320;2024-01-30T02:13:07;154.32;;;146.07;;
29452;SDS011;16424;50.956;5.320;2024-01-30T02:15:33;153.70;;;145.65;;
29452;SDS011;16424;50.956;5.320;2024-01-30T02:17:58;155.13;;;146.98;;
29452;SDS011;16424;50.956;5.320;2024-01-30T02:20:24;147.23;;;139.60;;
29452;SDS011;16424;50.956;5.320;2024-01-30T02:22:55;155.60;;;147.40;;
29452;SDS011;16424;50.956;5.320;2024-01-30T02:25:30;160.13;;;151.63;;
29452;SDS011;16424;50.956;5.320;2024-01-30T02:27:57;152.60;;;144.32;;
29452;SDS011;16424;50.956;5.320;2024-01-30T02:30:22;151.43;;;143.50;;
29452;SDS011;16424;50.956;5.320;2024-01-30T02:32:48;152.07;;;144.18;;
29452;SDS011;16424;50.956;5.320;2024-01-30T02:35:14;151.93;;;143.93;;
29452;SDS011;16424;50.956;5.320;2024-01-30T02:37:39;153.65;;;145.63;;
29452;SDS011;16424;50.956;5.320;2024-01-30T02:40:05;158.75;;;150.30;;
29452;SDS011;16424;50.956;5.320;2024-01-30T02:42:31;157.25;;;148.70;;
29452;SDS011;16424;50.956;5.320;2024-01-30T02:44:57;156.00;;;147.63;;
29452;SDS011;16424;50.956;5.320;2024-01-30T02:47:22;151.05;;;143.18;;
29452;SDS011;16424;50.956;5.320;2024-01-30T02:49:48;156.60;;;148.18;;
29452;SDS011;16424;50.956;5.320;2024-01-30T02:52:14;155.18;;;146.88;;
29452;SDS011;16424;50.956;5.320;2024-01-30T02:54:39;152.07;;;144.18;;
29452;SDS011;16424;50.956;5.320;2024-01-30T02:57:05;159.20;;;150.88;;
29452;SDS011;16424;50.956;5.320;2024-01-30T02:59:31;152.00;;;144.13;;
29452;SDS011;16424;50.956;5.320;2024-01-30T03:01:58;154.20;;;146.02;;
29452;SDS011;16424;50.956;5.320;2024-01-30T03:04:24;153.25;;;145.15;;
29452;SDS011;16424;50.956;5.320;2024-01-30T03:06:50;156.90;;;148.70;;
29452;SDS011;16424;50.956;5.320;2024-01-30T03:09:16;156.68;;;148.45;;
29452;SDS011;16424;50.956;5.320;2024-01-30T03:11:42;153.38;;;145.27;;
29452;SDS011;16424;50.956;5.320;2024-01-30T03:14:08;151.77;;;143.77;;
29452;SDS011;16424;50.956;5.320;2024-01-30T03:16:36;159.05;;;150.52;;
29452;SDS011;16424;50.956;5.320;2024-01-30T03:19:03;156.48;;;148.18;;
29452;SDS011;16424;50.956;5.320;2024-01-30T03:21:30;155.15;;;147.05;;
29452;SDS011;16424;50.956;5.320;2024-01-30T03:23:55;156.60;;;148.45;;
29452;SDS011;16424;50.956;5.320;2024-01-30T03:26:21;157.00;;;148.70;;
29452;SDS011;16424;50.956;5.320;2024-01-30T03:28:47;152.77;;;144.85;;
29452;SDS011;16424;50.956;5.320;2024-01-30T03:31:13;151.63;;;143.50;;
29452;SDS011;16424;50.956;5.320;2024-01-30T03:33:40;154.25;;;146.25;;
29452;SDS011;16424;50.956;5.320;2024-01-30T03:36:06;154.85;;;146.80;;
29452;SDS011;16424;50.956;5.320;2024-01-30T03:38:32;154.65;;;146.40;;
29452;SDS011;16424;50.956;5.320;2024-01-30T03:40:58;155.57;;;147.40;;
29452;SDS011;16424;50.956;5.320;2024-01-30T03:43:24;154.80;;;146.90;;
29452;SDS011;16424;50.956;5.320;2024-01-30T03:45:50;155.85;;;147.65;;
29452;SDS011;16424;50.956;5.320;2024-01-30T03:48:16;158.50;;;150.10;;
29452;SDS011;16424;50.956;5.320;2024-01-30T03:50:41;156.10;;;147.48;;
29452;SDS011;16424;50.956;5.320;2024-01-30T03:53:07;153.02;;;144.90;;
29452;SDS011;16424;50.956;5.320;2024-01-30T03:55:33;155.15;;;146.95;;
29452;SDS011;16424;50.956;5.320;2024-01-30T03:57:58;159.65;;;150.93;;
29452;SDS011;16424;50.956;5.320;2024-01-30T04:00:24;153.13;;;145.18;;
29452;SDS011;16424;50.956;5.320;2024-01-30T04:02:50;153.88;;;145.65;;
29452;SDS011;16424;50.956;5.320;2024-01-30T04:05:16;151.57;;;143.57;;
29452;SDS011;16424;50.956;5.320;2024-01-30T04:07:42;157.73;;;149.55;;
29452;SDS011;16424;50.956;5.320;2024-01-30T04:10:09;156.23;;;148.05;;
29452;SDS011;16424;50.956;5.320;2024-01-30T04:12:35;157.10;;;148.95;;
29452;SDS011;16424;50.956;5.320;2024-01-30T04:15:01;151.32;;;143.35;;
29452;SDS011;16424;50.956;5.320;2024-01-30T04:17:27;155.25;;;147.27;;
29452;SDS011;16424;50.956;5.320;2024-01-30T04:19:54;155.48;;;147.18;;
29452;SDS011;16424;50.956;5.320;2024-01-30T04:22:20;157.55;;;149.25;;
29452;SDS011;16424;50.956;5.320;2024-01-30T04:24:45;155.88;;;147.70;;
29452;SDS011;16424;50.956;5.320;2024-01-30T04:27:11;150.02;;;142.13;;
29452;SDS011;16424;50.956;5.320;2024-01-30T04:29:37;152.07;;;144.10;;
29452;SDS011;16424;50.956;5.320;2024-01-30T04:32:03;155.32;;;147.27;;
29452;SDS011;16424;50.956;5.320;2024-01-30T04:34:29;159.05;;;150.13;;
29452;SDS011;16424;50.956;5.320;2024-01-30T04:36:54;158.98;;;150.63;;
29452;SDS011;16424;50.956;5.320;2024-01-30T04:39:20;154.40;;;146.40;;
29452;SDS011;16424;50.956;5.320;2024-01-30T04:41:46;150.80;;;142.98;;
29452;SDS011;16424;50.956;5.320;2024-01-30T04:44:11;161.85;;;153.32;;
29452;SDS011;16424;50.956;5.320;2024-01-30T04:46:37;155.50;;;147.48;;
29452;SDS011;16424;50.956;5.320;2024-01-30T04:49:03;155.52;;;147.27;;
29452;SDS011;16424;50.956;5.320;2024-01-30T04:51:29;160.27;;;151.85;;
29452;SDS011;16424;50.956;5.320;2024-01-30T04:53:55;157.60;;;149.30;;
29452;SDS011;16424;50.956;5.320;2024-01-30T04:56:20;157.45;;;148.80;;
29452;SDS011;16424;50.956;5.320;2024-01-30T04:58:46;159.93;;;151.45;;
29452;SDS011;16424;50.956;5.320;2024-01-30T05:01:15;150.35;;;142.52;;
29452;SDS011;16424;50.956;5.320;2024-01-30T05:03:41;159.07;;;150.68;;
29452;SDS011;16424;50.956;5.320;2024-01-30T05:06:07;160.55;;;151.55;;
29452;SDS011;16424;50.956;5.320;2024-01-30T05:08:33;156.85;;;148.65;;
29452;SDS011;16424;50.956;5.320;2024-01-30T05:11:01;159.23;;;150.93;;
29452;SDS011;16424;50.956;5.320;2024-01-30T05:13:29;159.88;;;151.27;;
29452;SDS011;16424;50.956;5.320;2024-01-30T05:15:55;163.52;;;154.95;;
29452;SDS011;16424;50.956;5.320;2024-01-30T05:18:21;167.02;;;158.15;;
29452;SDS011;16424;50.956;5.320;2024-01-30T05:20:46;166.13;;;157.10;;
29452;SDS011;16424;50.956;5.320;2024-01-30T05:23:12;159.77;;;151.40;;
29452;SDS011;16424;50.956;5.320;2024-01-30T05:25:38;161.30;;;152.98;;
29452;SDS011;16424;50.956;5.320;2024-01-30T05:28:03;166.50;;;157.60;;
29452;SDS011;16424;50.956;5.320;2024-01-30T05:30:29;165.35;;;156.63;;
29452;SDS011;16424;50.956;5.320;2024-01-30T05:32:55;158.27;;;149.68;;
29452;SDS011;16424;50.956;5.320;2024-01-30T05:35:21;159.23;;;150.90;;
29452;SDS011;16424;50.956;5.320;2024-01-30T05:37:48;164.35;;;155.88;;
29452;SDS011;16424;50.956;5.320;2024-01-30T05:40:14;161.23;;;152.90;;
29452;SDS011;16424;50.956;5.320;2024-01-30T05:42:40;162.43;;;153.75;;
29452;SDS011;16424;50.956;5.320;2024-01-30T05:45:06;162.93;;;154.48;;
29452;SDS011;16424;50.956;5.320;2024-01-30T05:47:32;162.40;;;153.93;;
29452;SDS011;16424;50.956;5.320;2024-01-30T05:49:58;155.85;;;147.60;;
29452;SDS011;16424;50.956;5.320;2024-01-30T05:52:24;161.18;;;152.77;;
29452;SDS011;16424;50.956;5.320;2024-01-30T05:54:50;161.20;;;152.70;;
29452;SDS011;16424;50.956;5.320;2024-01-30T05:57:16;162.43;;;153.73;;
29452;SDS011;16424;50.956;5.320;2024-01-30T05:59:41;159.35;;;151.00;;
29452;SDS011;16424;50.956;5.320;2024-01-30T06:02:09;162.00;;;153.30;;
29452;SDS011;16424;50.956;5.320;2024-01-30T06:04:36;156.82;;;148.65;;
29452;SDS011;16424;50.956;5.320;2024-01-30T06:07:01;158.60;;;150.35;;
29452;SDS011;16424;50.956;5.320;2024-01-30T06:09:27;164.15;;;155.43;;
29452;SDS011;16424;50.956;5.320;2024-01-30T06:11:54;162.02;;;153.63;;
29452;SDS011;16424;50.956;5.320;2024-01-30T06:14:20;160.23;;;151.82;;
29452;SDS011;16424;50.956;5.320;2024-01-30T06:16:45;157.68;;;149.48;;
29452;SDS011;16424;50.956;5.320;2024-01-30T06:19:11;158.07;;;149.95;;
29452;SDS011;16424;50.956;5.320;2024-01-30T06:21:37;161.57;;;152.48;;
29452;SDS011;16424;50.956;5.320;2024-01-30T06:24:03;162.23;;;153.55;;
29452;SDS011;16424;50.956;5.320;2024-01-30T06:26:29;165.50;;;157.00;;
29452;SDS011;16424;50.956;5.320;2024-01-30T06:28:55;163.23;;;154.60;;
29452;SDS011;16424;50.956;5.320;2024-01-30T06:31:20;160.30;;;151.90;;
29452;SDS011;16424;50.956;5.320;2024-01-30T06:33:47;162.57;;;153.98;;
29452;SDS011;16424;50.956;5.320;2024-01-30T06:36:12;157.57;;;148.98;;
29452;SDS011;16424;50.956;5.320;2024-01-30T06:38:38;156.00;;;147.95;;
29452;SDS011;16424;50.956;5.320;2024-01-30T06:41:04;160.95;;;152.52;;
29452;SDS011;16424;50.956;5.320;2024-01-30T06:43:30;161.05;;;152.25;;
29452;SDS011;16424;50.956;5.320;2024-01-30T06:45:55;163.20;;;154.38;;
29452;SDS011;16424;50.956;5.320;2024-01-30T06:48:21;166.50;;;157.70;;
29452;SDS011;16424;50.956;5.320;2024-01-30T06:50:46;155.60;;;147.57;;
29452;SDS011;16424;50.956;5.320;2024-01-30T06:53:13;159.00;;;150.70;;
29452;SDS011;16424;50.956;5.320;2024-01-30T06:55:38;155.68;;;147.55;;
29452;SDS011;16424;50.956;5.320;2024-01-30T06:58:04;155.85;;;147.63;;
29452;SDS011;16424;50.956;5.320;2024-01-30T07:00:29;156.70;;;148.40;;
29452;SDS011;16424;50.956;5.320;2024-01-30T07:02:55;159.43;;;150.98;;
29452;SDS011;16424;50.956;5.320;2024-01-30T07:05:21;158.55;;;149.82;;
29452;SDS011;16424;50.956;5.320;2024-01-30T07:07:47;161.65;;;152.95;;
29452;SDS011;16424;50.956;5.320;2024-01-30T07:10:12;159.75;;;151.20;;
29452;SDS011;16424;50.956;5.320;2024-01-30T07:12:38;164.45;;;155.90;;
29452;SDS011;16424;50.956;5.320;2024-01-30T07:15:05;159.05;;;150.50;;
29452;SDS011;16424;50.956;5.320;2024-01-30T07:17:33;159.65;;;151.35;;
29452;SDS011;16424;50.956;5.320;2024-01-30T07:19:59;154.50;;;146.30;;
29452;SDS011;16424;50.956;5.320;2024-01-30T07:22:24;157.35;;;149.07;;
29452;SDS011;16424;50.956;5.320;2024-01-30T07:24:50;161.57;;;152.88;;
29452;SDS011;16424;50.956;5.320;2024-01-30T07:27:17;161.07;;;152.73;;
29452;SDS011;16424;50.956;5.320;2024-01-30T07:29:43;160.10;;;151.40;;
29452;SDS011;16424;50.956;5.320;2024-01-30T07:32:09;157.55;;;149.23;;
29452;SDS011;16424;50.956;5.320;2024-01-30T07:34:34;157.55;;;149.30;;
29452;SDS011;16424;50.956;5.320;2024-01-30T07:37:01;165.30;;;156.63;;
29452;SDS011;16424;50.956;5.320;2024-01-30T07:39:27;155.63;;;147.55;;
29452;SDS011;16424;50.956;5.320;2024-01-30T07:41:53;157.13;;;148.68;;
29452;SDS011;16424;50.956;5.320;2024-01-30T07:44:19;161.00;;;152.40;;
29452;SDS011;16424;50.956;5.320;2024-01-30T07:46:45;155.40;;;147.30;;
29452;SDS011;16424;50.956;5.320;2024-01-30T07:49:11;156.85;;;148.63;;
29452;SDS011;16424;50.956;5.320;2024-01-30T07:51:36;161.02;;;152.63;;
29452;SDS011;16424;50.956;5.320;2024-01-30T07:54:02;155.48;;;147.27;;
29452;SDS011;16424;50.956;5.320;2024-01-30T07:56:28;159.02;;;150.68;;
29452;SDS011;16424;50.956;5.320;2024-01-30T07:58:53;160.98;;;152.27;;
29452;SDS011;16424;50.956;5.320;2024-01-30T08:01:19;162.45;;;153.77;;
29452;SDS011;16424;50.956;5.320;2024-01-30T08:03:45;155.13;;;146.93;;
29452;SDS011;16424;50.956;5.320;2024-01-30T08:06:10;165.48;;;156.82;;
29452;SDS011;16424;50.956;5.320;2024-01-30T08:08:36;164.90;;;156.30;;
29452;SDS011;16424;50.956;5.320;2024-01-30T08:11:03;158.70;;;150.38;;
29452;SDS011;16424;50.956;5.320;2024-01-30T08:13:28;162.13;;;153.43;;
29452;SDS011;16424;50.956;5.320;2024-01-30T08:15:54;158.23;;;149.95;;
29452;SDS011;16424;50.956;5.320;2024-01-30T08:18:20;163.63;;;154.77;;
29452;SDS011;16424;50.956;5.320;2024-01-30T08:20:45;159.98;;;151.63;;
29452;SDS011;16424;50.956;5.320;2024-01-30T08:23:11;159.63;;;151.02;;
29452;SDS011;16424;50.956;5.320;2024-01-30T08:25:37;155.10;;;146.80;;
29452;SDS011;16424;50.956;5.320;2024-01-30T08:28:03;157.48;;;149.30;;
29452;SDS011;16424;50.956;5.320;2024-01-30T08:30:29;157.20;;;148.77;;
29452;SDS011;16424;50.956;5.320;2024-01-30T08:32:54;157.25;;;149.15;;
29452;SDS011;16424;50.956;5.320;2024-01-30T08:35:20;152.13;;;144.20;;
29452;SDS011;16424;50.956;5.320;2024-01-30T08:37:46;154.60;;;146.05;;
29452;SDS011;16424;50.956;5.320;2024-01-30T08:40:11;159.82;;;151.40;;
29452;SDS011;16424;50.956;5.320;2024-01-30T08:42:37;157.25;;;148.88;;
29452;SDS011;16424;50.956;5.320;2024-01-30T08:45:03;154.73;;;146.60;;
29452;SDS011;16424;50.956;5.320;2024-01-30T08:47:30;150.10;;;142.00;;
29452;SDS011;16424;50.956;5.320;2024-01-30T08:49:56;153.23;;;145.02;;
29452;SDS011;16424;50.956;5.320;2024-01-30T08:52:21;152.15;;;144.05;;
29452;SDS011;16424;50.956;5.320;2024-01-30T08:54:47;157.32;;;149.05;;
29452;SDS011;16424;50.956;5.320;2024-01-30T08:57:12;155.73;;;147.52;;
29452;SDS011;16424;50.956;5.320;2024-01-30T08:59:38;152.98;;;144.90;;
29452;SDS011;16424;50.956;5.320;2024-01-30T09:02:05;151.68;;;143.57;;
29452;SDS011;16424;50.956;5.320;2024-01-30T09:04:30;155.23;;;146.82;;
29452;SDS011;16424;50.956;5.320;2024-01-30T09:06:56;151.32;;;143.13;;
29452;SDS011;16424;50.956;5.320;2024-01-30T09:09:21;152.65;;;144.48;;
29452;SDS011;16424;50.956;5.320;2024-01-30T09:11:47;148.80;;;140.90;;
29452;SDS011;16424;50.956;5.320;2024-01-30T09:14:13;151.95;;;144.02;;
29452;SDS011;16424;50.956;5.320;2024-01-30T09:16:38;147.40;;;139.40;;
29452;SDS011;16424;50.956;5.320;2024-01-30T09:19:04;148.60;;;140.57;;
29452;SDS011;16424;50.956;5.320;2024-01-30T09:21:30;146.95;;;139.25;;
29452;SDS011;16424;50.956;5.320;2024-01-30T09:24:01;145.70;;;138.00;;
29452;SDS011;16424;50.956;5.320;2024-01-30T09:26:29;147.07;;;138.65;;
29452;SDS011;16424;50.956;5.320;2024-01-30T09:28:54;147.30;;;139.45;;
29452;SDS011;16424;50.956;5.320;2024-01-30T09:31:20;151.07;;;143.40;;
29452;SDS011;16424;50.956;5.320;2024-01-30T09:33:45;143.40;;;135.70;;
29452;SDS011;16424;50.956;5.320;2024-01-30T09:36:13;150.55;;;142.63;;
29452;SDS011;16424;50.956;5.320;2024-01-30T09:38:40;148.73;;;140.65;;
29452;SDS011;16424;50.956;5.320;2024-01-30T09:41:07;148.77;;;140.93;;
29452;SDS011;16424;50.956;5.320;2024-01-30T09:43:36;146.50;;;138.73;;
29452;SDS011;16424;50.956;5.320;2024-01-30T09:46:04;148.45;;;140.52;;
29452;SDS011;16424;50.956;5.320;2024-01-30T09:48:33;145.65;;;137.90;;
29452;SDS011;16424;50.956;5.320;2024-01-30T09:50:59;148.63;;;140.60;;
29452;SDS011;16424;50.956;5.320;2024-01-30T09:53:25;140.15;;;132.65;;
29452;SDS011;16424;50.956;5.320;2024-01-30T09:55:51;143.73;;;136.10;;
29452;SDS011;16424;50.956;5.320;2024-01-30T09:58:17;139.77;;;132.15;;
29452;SDS011;16424;50.956;5.320;2024-01-30T10:00:42;148.43;;;140.52;;
29452;SDS011;16424;50.956;5.320;2024-01-30T10:03:08;142.85;;;135.15;;
29452;SDS011;16424;50.956;5.320;2024-01-30T10:05:35;144.25;;;136.70;;
29452;SDS011;16424;50.956;5.320;2024-01-30T10:08:05;142.90;;;134.93;;
29452;SDS011;16424;50.956;5.320;2024-01-30T10:10:33;143.13;;;135.45;;
29452;SDS011;16424;50.956;5.320;2024-01-30T10:13:00;140.95;;;132.98;;
29452;SDS011;16424;50.956;5.320;2024-01-30T10:15:25;140.82;;;133.38;;
29452;SDS011;16424;50.956;5.320;2024-01-30T10:17:53;140.45;;;132.93;;
29452;SDS011;16424;50.956;5.320;2024-01-30T10:20:19;145.20;;;137.52;;
29452;SDS011;16424;50.956;5.320;2024-01-30T10:22:47;141.85;;;134.00;;
29452;SDS011;16424;50.956;5.320;2024-01-30T10:25:14;141.93;;;133.50;;
29452;SDS011;16424;50.956;5.320;2024-01-30T10:27:40;140.13;;;132.50;;
29452;SDS011;16424;50.956;5.320;2024-01-30T10:30:06;137.95;;;130.30;;
29452;SDS011;16424;50.956;5.320;2024-01-30T10:32:32;135.88;;;128.32;;
29452;SDS011;16424;50.956;5.320;2024-01-30T10:34:58;139.75;;;132.45;;
29452;SDS011;16424;50.956;5.320;2024-01-30T10:37:25;139.10;;;131.60;;
29452;SDS011;16424;50.956;5.320;2024-01-30T10:39:52;139.57;;;132.07;;
29452;SDS011;16424;50.956;5.320;2024-01-30T10:42:20;141.30;;;133.55;;
29452;SDS011;16424;50.956;5.320;2024-01-30T10:44:56;141.65;;;133.98;;
29452;SDS011;16424;50.956;5.320;2024-01-30T10:47:26;140.48;;;132.77;;
29452;SDS011;16424;50.956;5.320;2024-01-30T10:49:54;134.93;;;127.35;;
29452;SDS011;16424;50.956;5.320;2024-01-30T10:52:20;142.45;;;134.73;;
29452;SDS011;16424;50.956;5.320;2024-01-30T10:54:47;139.32;;;131.75;;
29452;SDS011;16424;50.956;5.320;2024-01-30T10:57:15;136.32;;;128.48;;
29452;SDS011;16424;50.956;5.320;2024-01-30T10:59:41;135.88;;;128.30;;
29452;SDS011;16424;50.956;5.320;2024-01-30T11:02:09;140.63;;;132.68;;
29452;SDS011;16424;50.956;5.320;2024-01-30T11:04:36;142.35;;;134.15;;
29452;SDS011;16424;50.956;5.320;2024-01-30T11:07:02;134.80;;;127.35;;
29452;SDS011;16424;50.956;5.320;2024-01-30T11:09:29;135.07;;;127.25;;
29452;SDS011;16424;50.956;5.320;2024-01-30T11:11:58;139.65;;;131.75;;
29452;SDS011;16424;50.956;5.320;2024-01-30T11:14:29;137.80;;;130.35;;
29452;SDS011;16424;50.956;5.320;2024-01-30T11:16:58;143.95;;;135.98;;
29452;SDS011;16424;50.956;5.320;2024-01-30T11:19:25;140.82;;;133.30;;
29452;SDS011;16424;50.956;5.320;2024-01-30T11:21:54;137.48;;;129.88;;
29452;SDS011;16424;50.956;5.320;2024-01-30T11:24:22;142.65;;;134.60;;
29452;SDS011;16424;50.956;5.320;2024-01-30T11:26:58;146.70;;;138.43;;
29452;SDS011;16424;50.956;5.320;2024-01-30T11:29:25;141.68;;;133.90;;
29452;SDS011;16424;50.956;5.320;2024-01-30T11:31:54;144.80;;;136.70;;
29452;SDS011;16424;50.956;5.320;2024-01-30T11:34:21;140.45;;;132.50;;
29452;SDS011;16424;50.956;5.320;2024-01-30T11:36:57;148.20;;;139.98;;
29452;SDS011;16424;50.956;5.320;2024-01-30T11:39:28;146.20;;;138.18;;
29452;SDS011;16424;50.956;5.320;2024-01-30T11:41:55;145.30;;;137.05;;
29452;SDS011;16424;50.956;5.320;2024-01-30T11:44:21;144.60;;;136.30;;
29452;SDS011;16424;50.956;5.320;2024-01-30T11:46:51;147.70;;;139.50;;
29452;SDS011;16424;50.956;5.320;2024-01-30T11:49:17;147.38;;;139.18;;
29452;SDS011;16424;50.956;5.320;2024-01-30T11:51:44;145.80;;;137.05;;
29452;SDS011;16424;50.956;5.320;2024-01-30T11:54:10;149.13;;;140.48;;
29452;SDS011;16424;50.956;5.320;2024-01-30T11:56:37;151.65;;;143.45;;
29452;SDS011;16424;50.956;5.320;2024-01-30T11:59:03;149.65;;;141.25;;
29452;SDS011;16424;50.956;5.320;2024-01-30T12:01:29;146.43;;;138.02;;
29452;SDS011;16424;50.956;5.320;2024-01-30T12:03:57;151.27;;;142.50;;
29452;SDS011;16424;50.956;5.320;2024-01-30T12:06:24;151.32;;;143.07;;
29452;SDS011;16424;50.956;5.320;2024-01-30T12:08:56;142.25;;;133.98;;
29452;SDS011;16424;50.956;5.320;2024-01-30T12:11:26;155.40;;;146.52;;
29452;SDS011;16424;50.956;5.320;2024-01-30T12:13:52;153.13;;;144.70;;
29452;SDS011;16424;50.956;5.320;2024-01-30T12:16:19;150.27;;;141.65;;
29452;SDS011;16424;50.956;5.320;2024-01-30T12:18:45;146.75;;;138.80;;
29452;SDS011;16424;50.956;5.320;2024-01-30T12:21:11;148.13;;;139.57;;
29452;SDS011;16424;50.956;5.320;2024-01-30T12:23:37;151.05;;;142.85;;
29452;SDS011;16424;50.956;5.320;2024-01-30T12:26:02;146.35;;;138.07;;
29452;SDS011;16424;50.956;5.320;2024-01-30T12:28:31;149.02;;;140.55;;
29452;SDS011;16424;50.956;5.320;2024-01-30T12:31:04;149.27;;;140.98;;
29452;SDS011;16424;50.956;5.320;2024-01-30T12:33:30;146.77;;;138.85;;
29452;SDS011;16424;50.956;5.320;2024-01-30T12:35:56;148.45;;;140.25;;
29452;SDS011;16424;50.956;5.320;2024-01-30T12:38:22;151.50;;;143.13;;
29452;SDS011;16424;50.956;5.320;2024-01-30T12:40:50;157.20;;;148.52;;
29452;SDS011;16424;50.956;5.320;2024-01-30T12:43:24;148.60;;;140.45;;
29452;SDS011;16424;50.956;5.320;2024-01-30T12:45:52;155.07;;;146.98;;
29452;SDS011;16424;50.956;5.320;2024-01-30T12:48:18;147.25;;;139.25;;
29452;SDS011;16424;50.956;5.320;2024-01-30T12:50:43;140.60;;;132.93;;
29452;SDS011;16424;50.956;5.320;2024-01-30T12:53:09;139.48;;;132.07;;
29452;SDS011;16424;50.956;5.320;2024-01-30T12:55:35;146.40;;;138.60;;
29452;SDS011;16424;50.956;5.320;2024-01-30T12:58:01;148.00;;;140.23;;
29452;SDS011;16424;50.956;5.320;2024-01-30T13:00:26;144.98;;;137.05;;
29452;SDS011;16424;50.956;5.320;2024-01-30T13:02:52;150.80;;;142.02;;
29452;SDS011;16424;50.956;5.320;2024-01-30T13:05:18;139.13;;;131.65;;
29452;SDS011;16424;50.956;5.320;2024-01-30T13:07:44;140.93;;;133.63;;
29452;SDS011;16424;50.956;5.320;2024-01-30T13:10:09;141.32;;;133.95;;
29452;SDS011;16424;50.956;5.320;2024-01-30T13:12:35;141.20;;;133.18;;
29452;SDS011;16424;50.956;5.320;2024-01-30T13:15:02;162.88;;;154.32;;
29452;SDS011;16424;50.956;5.320;2024-01-30T13:17:29;139.15;;;132.00;;
29452;SDS011;16424;50.956;5.320;2024-01-30T13:19:55;139.25;;;132.18;;
29452;SDS011;16424;50.956;5.320;2024-01-30T13:22:21;134.88;;;127.68;;
29452;SDS011;16424;50.956;5.320;2024-01-30T13:24:47;135.00;;;127.65;;
29452;SDS011;16424;50.956;5.320;2024-01-30T13:27:13;132.15;;;125.30;;
29452;SDS011;16424;50.956;5.320;2024-01-30T13:29:39;128.95;;;122.15;;
29452;SDS011;16424;50.956;5.320;2024-01-30T13:32:05;127.30;;;120.78;;
29452;SDS011;16424;50.956;5.320;2024-01-30T13:34:30;122.07;;;115.88;;
29452;SDS011;16424;50.956;5.320;2024-01-30T13:36:56;114.28;;;108.57;;
29452;SDS011;16424;50.956;5.320;2024-01-30T13:39:22;100.95;;;95.70;;
29452;SDS011;16424;50.956;5.320;2024-01-30T13:41:48;100.38;;;95.38;;
29452;SDS011;16424;50.956;5.320;2024-01-30T13:44:14;96.40;;;91.60;;
29452;SDS011;16424;50.956;5.320;2024-01-30T13:46:41;91.72;;;87.22;;
29452;SDS011;16424;50.956;5.320;2024-01-30T13:49:07;81.65;;;77.50;;
29452;SDS011;16424;50.956;5.320;2024-01-30T13:51:33;82.20;;;78.20;;